Terminal Aerodrome Forecast
Issued by NWS Des Moines, IA

Home | Current Version | Previous Version | Text Only | Print | Product List | Glossary On
Versions: 1 2 3 4 5 6 7 8 9 10 11 12 13 14 15 16 17 18 19 20 21 22 23 24 25 26 27 28 29 30 31
000
FTUS43 KDMX 282335
TAFDSM
TAF
KDSM 282335Z 2900/2924 03004KT P6SM FEW015 BKN150
     FM290500 04005KT P6SM SCT006 BKN070 OVC100
     FM291300 03010KT 5SM -SN SCT007 OVC020=

USA.gov is the U.S. government's official web portal to all federal, state and local government web resources and services.